Time;durP1;ratioP1;P1;durP2;ratioP2;P2;SDS_P1;SDS_P2;PMS_P1;PMS_P2;Temp;Humidity;BMP_temperature;BMP_pressure;BME280_temperature;BME280_humidity;BME280_pressure;Samples;Min_cycle;Max_cycle;Signal;HPM_P1;HPM_P2
2023/04/19 00:00:25;;;;;;;2.67;1.42;;;;;;;8.82;63.80;101976.31;5314382;27;20077;-74
2023/04/19 00:02:56;;;;;;;4.22;1.60;;;;;;;8.70;63.84;101965.97;5311703;27;20058;-75
2023/04/19 00:05:27;;;;;;;4.32;1.52;;;;;;;8.64;64.97;101975.56;5312736;27;20057;-74
2023/04/19 00:07:57;;;;;;;5.47;1.52;;;;;;;8.58;64.70;101966.03;5313549;27;20031;-72
2023/04/19 00:10:28;;;;;;;3.67;1.55;;;;;;;8.42;65.57;101968.72;5311807;27;20057;-74
2023/04/19 00:12:58;;;;;;;3.63;1.40;;;;;;;8.25;66.11;101966.19;5312397;27;20030;-74
2023/04/19 00:15:28;;;;;;;5.72;1.45;;;;;;;8.18;67.11;101974.91;5296927;27;20031;-75
2023/04/19 00:17:59;;;;;;;6.00;1.90;;;;;;;8.11;67.49;101977.50;5293027;27;20049;-73
2023/04/19 00:20:29;;;;;;;5.72;1.70;;;;;;;7.84;68.81;101962.81;5311180;27;20014;-73
2023/04/19 00:22:59;;;;;;;3.65;1.42;;;;;;;7.80;68.96;101970.63;5312269;27;20403;-72
2023/04/19 00:25:30;;;;;;;3.70;1.33;;;;;;;7.72;69.58;101978.44;5314400;27;20037;-72
2023/04/19 00:28:01;;;;;;;6.07;1.70;;;;;;;7.68;69.80;101976.72;5304623;27;20102;-72
2023/04/19 00:30:31;;;;;;;4.57;1.98;;;;;;;7.60;71.38;101964.59;5305716;27;20027;-73
2023/04/19 00:33:01;;;;;;;3.58;1.50;;;;;;;7.55;70.92;101976.75;5309762;27;20644;-74
2023/04/19 00:35:32;;;;;;;5.63;1.80;;;;;;;7.57;70.90;101973.28;5308030;27;20031;-74
2023/04/19 00:38:02;;;;;;;4.72;1.35;;;;;;;7.41;71.00;101968.97;5291142;27;20484;-75
2023/04/19 00:40:32;;;;;;;4.82;1.70;;;;;;;7.41;71.49;101971.56;5310952;27;20056;-75
2023/04/19 00:43:03;;;;;;;2.65;1.38;;;;;;;7.48;71.59;101978.50;5312316;27;20027;-75
2023/04/19 00:45:35;;;;;;;3.67;1.50;;;;;;;7.58;71.66;101974.13;5315046;27;20175;-74
2023/04/19 00:48:06;;;;;;;3.25;1.65;;;;;;;7.47;71.08;101981.97;5292810;27;20114;-75
2023/04/19 00:50:37;;;;;;;2.95;1.42;;;;;;;7.51;71.54;101977.63;5311318;27;20030;-74
2023/04/19 00:53:08;;;;;;;4.03;1.83;;;;;;;7.36;71.68;101981.06;5295258;27;20035;-75
2023/04/19 00:55:38;;;;;;;3.05;1.42;;;;;;;7.43;72.19;101975.03;5311049;27;20420;-75
2023/04/19 00:58:09;;;;;;;2.55;1.30;;;;;;;7.33;72.18;101978.50;5311332;27;20031;-75
2023/04/19 01:00:39;;;;;;;7.78;2.00;;;;;;;7.40;71.73;101972.44;5312798;27;20672;-75
2023/04/19 01:03:09;;;;;;;3.88;1.90;;;;;;;7.34;72.91;101975.00;5293142;27;20056;-74
2023/04/19 01:05:40;;;;;;;4.00;1.63;;;;;;;7.29;72.24;101976.75;5314803;27;20015;-75
2023/04/19 01:08:10;;;;;;;4.45;1.65;;;;;;;7.22;72.83;101969.81;5311228;27;20026;-75
2023/04/19 01:10:40;;;;;;;3.28;1.63;;;;;;;7.10;72.89;101973.28;5311411;27;20536;-75
2023/04/19 01:13:11;;;;;;;3.60;1.70;;;;;;;7.10;72.74;101975.88;5313067;27;20027;-71
2023/04/19 01:15:41;;;;;;;8.27;1.90;;;;;;;7.07;73.99;101975.91;5293795;27;20031;-75
2023/04/19 01:18:12;;;;;;;4.80;1.90;;;;;;;6.97;74.66;101976.72;5313865;27;20481;-75
2023/04/19 01:20:43;;;;;;;5.72;1.90;;;;;;;7.03;74.73;101968.94;5310705;27;20046;-75
2023/04/19 01:23:13;;;;;;;4.43;1.60;;;;;;;7.00;74.19;101971.53;5310375;27;20022;-74
2023/04/19 01:25:43;;;;;;;4.60;1.80;;;;;;;6.76;74.58;101971.50;5310002;27;20069;-75
2023/04/19 01:28:14;;;;;;;7.97;1.92;;;;;;;6.73;75.24;101972.34;5312711;27;20106;-75
2023/04/19 01:30:44;;;;;;;3.30;1.48;;;;;;;6.52;76.88;101971.44;5310053;27;20080;-75
2023/04/19 01:33:15;;;;;;;6.47;1.80;;;;;;;6.43;77.72;101966.22;5310094;27;20018;-71
2023/04/19 01:35:47;;;;;;;2.40;1.35;;;;;;;6.62;77.49;101968.00;5307412;27;20500;-75
2023/04/19 01:38:17;;;;;;;6.78;1.75;;;;;;;6.52;77.67;101961.03;5308917;27;20023;-75
2023/04/19 01:40:47;;;;;;;5.90;1.63;;;;;;;6.66;76.92;101964.53;5310695;27;20494;-72
2023/04/19 01:43:18;;;;;;;4.00;1.73;;;;;;;6.53;78.44;101958.47;5309878;27;20137;-75
2023/04/19 01:45:48;;;;;;;3.83;1.60;;;;;;;6.49;78.82;101956.72;5316780;27;20023;-71
2023/04/19 01:48:18;;;;;;;4.03;1.60;;;;;;;6.66;78.26;101959.34;5293968;27;20026;-74
2023/04/19 01:50:49;;;;;;;6.15;1.70;;;;;;;6.64;78.10;101961.06;5309395;27;20219;-73
2023/04/19 01:53:19;;;;;;;7.28;2.03;;;;;;;6.52;78.06;101953.25;5312884;27;20030;-73
2023/04/19 01:55:49;;;;;;;3.92;1.45;;;;;;;6.39;78.25;101954.94;5311707;27;20645;-72
2023/04/19 01:58:20;;;;;;;4.15;1.80;;;;;;;6.54;77.81;101964.50;5314519;27;20061;-75
2023/04/19 02:00:50;;;;;;;4.03;1.90;;;;;;;6.42;78.14;101960.13;5293745;27;20030;-73
2023/04/19 02:03:20;;;;;;;3.47;1.48;;;;;;;6.36;79.33;101956.66;5313745;27;20023;-74
2023/04/19 02:05:51;;;;;;;7.25;2.05;;;;;;;6.36;79.54;101967.03;5307926;27;20500;-71
2023/04/19 02:08:21;;;;;;;3.40;1.50;;;;;;;6.42;79.50;101959.28;5309974;27;20071;-75
2023/04/19 02:10:51;;;;;;;3.78;1.80;;;;;;;6.39;79.52;101964.47;5310365;27;20026;-75
2023/04/19 02:13:22;;;;;;;6.72;1.98;;;;;;;6.12;80.50;101965.19;5305707;27;20023;-75
2023/04/19 02:15:52;;;;;;;6.85;2.17;;;;;;;6.29;80.51;101973.09;5315575;27;20023;-74
2023/04/19 02:18:22;;;;;;;3.45;1.75;;;;;;;6.23;79.43;101968.72;5307695;27;20388;-75
2023/04/19 02:20:53;;;;;;;5.75;1.73;;;;;;;6.14;80.83;101968.69;5311552;27;20023;-74
2023/04/19 02:23:24;;;;;;;3.88;1.75;;;;;;;6.13;80.50;101966.09;5298169;27;20105;-75
2023/04/19 02:25:54;;;;;;;4.35;1.63;;;;;;;6.10;80.15;101966.06;5318698;27;20023;-75
2023/04/19 02:28:24;;;;;;;7.43;1.80;;;;;;;6.13;80.89;101966.09;5311578;27;20026;-74
2023/04/19 02:30:55;;;;;;;3.70;1.63;;;;;;;6.02;81.24;101962.56;5318975;27;20027;-75
2023/04/19 02:33:28;;;;;;;4.97;2.00;;;;;;;6.01;80.54;101960.81;5297887;27;20717;-74
2023/04/19 02:35:59;;;;;;;7.63;2.03;;;;;;;6.03;81.48;101966.88;5312356;27;20023;-74
2023/04/19 02:38:29;;;;;;;6.38;1.85;;;;;;;6.07;80.78;101966.91;5314543;27;20380;-75
2023/04/19 02:41:03;;;;;;;5.03;1.75;;;;;;;5.89;81.30;101964.22;5313915;27;20111;-75
2023/04/19 02:43:33;;;;;;;5.13;1.75;;;;;;;5.99;80.84;101963.44;5315653;27;20123;-74
2023/04/19 02:46:03;;;;;;;8.57;1.73;;;;;;;5.81;81.25;101954.66;5316644;27;20106;-74
2023/04/19 02:48:34;;;;;;;5.55;1.73;;;;;;;5.80;82.10;101959.00;5316666;27;20023;-73
2023/04/19 02:51:04;;;;;;;4.88;1.77;;;;;;;5.87;82.26;101957.28;5297006;27;20023;-74
2023/04/19 02:53:34;;;;;;;4.60;1.60;;;;;;;5.81;82.33;101955.56;5317280;27;20404;-75
2023/04/19 02:56:05;;;;;;;4.97;1.88;;;;;;;5.71;82.31;101961.50;5315122;27;20030;-74
2023/04/19 02:58:36;;;;;;;9.52;2.28;;;;;;;5.76;82.16;101958.94;5298230;27;20031;-74
2023/04/19 03:01:06;;;;;;;4.07;1.85;;;;;;;5.81;83.28;101959.84;5316605;27;20023;-74
2023/04/19 03:03:36;;;;;;;6.57;1.77;;;;;;;5.77;82.53;101951.16;5296054;27;20030;-75
2023/04/19 03:06:07;;;;;;;5.18;1.70;;;;;;;5.74;82.66;101952.88;5320540;27;20563;-73
2023/04/19 03:08:37;;;;;;;6.32;2.20;;;;;;;5.68;83.41;101950.22;5316693;27;20102;-75
2023/04/19 03:11:07;;;;;;;3.58;1.67;;;;;;;5.53;83.46;101955.31;5291521;27;20767;-71
2023/04/19 03:13:39;;;;;;;6.35;2.10;;;;;;;5.44;84.33;101953.53;5317893;27;20023;-75
2023/04/19 03:16:09;;;;;;;4.95;1.70;;;;;;;5.48;83.88;101947.53;5313003;27;20515;-72
2023/04/19 03:18:40;;;;;;;4.55;1.60;;;;;;;5.54;83.80;101944.13;5296587;27;20031;-71
2023/04/19 03:21:10;;;;;;;3.60;1.60;;;;;;;5.41;84.03;101947.47;5294519;27;20025;-72
2023/04/19 03:23:40;;;;;;;3.42;1.75;;;;;;;5.49;83.80;101938.88;5318182;27;20050;-72
2023/04/19 03:26:11;;;;;;;4.30;1.70;;;;;;;5.37;84.83;101937.94;5294263;27;20076;-74
2023/04/19 03:28:41;;;;;;;3.38;1.60;;;;;;;5.49;84.25;101943.19;5312858;27;20080;-73
2023/04/19 03:31:11;;;;;;;4.15;1.48;;;;;;;5.41;85.25;101939.69;5310490;27;21775;-72
2023/04/19 03:33:42;;;;;;;4.47;1.70;;;;;;;5.38;85.20;101933.63;5315806;27;20048;-73
2023/04/19 03:36:12;;;;;;;6.80;1.60;;;;;;;5.45;84.71;101944.03;5300583;27;20042;-72
2023/04/19 03:38:43;;;;;;;5.70;1.70;;;;;;;5.44;86.34;101929.34;5299327;27;20651;-72
2023/04/19 03:41:20;;;;;;;6.82;1.85;;;;;;;5.38;84.63;101929.31;5311861;27;20023;-74
2023/04/19 03:43:50;;;;;;;5.57;1.60;;;;;;;5.40;84.92;101930.19;5292935;27;20110;-75
2023/04/19 03:46:21;;;;;;;3.65;1.77;;;;;;;5.33;85.56;101933.56;5318011;27;20133;-74
2023/04/19 03:48:52;;;;;;;6.40;1.80;;;;;;;5.35;85.61;101934.44;5315314;27;20025;-73
2023/04/19 03:51:22;;;;;;;4.70;1.48;;;;;;;5.40;85.27;101932.78;5320102;27;20049;-75
2023/04/19 03:53:52;;;;;;;3.33;1.55;;;;;;;5.33;85.02;101930.13;5310576;27;20068;-74
2023/04/19 03:56:23;;;;;;;3.65;1.40;;;;;;;5.38;84.21;101918.94;5312057;27;20025;-74
2023/04/19 03:58:53;;;;;;;2.58;1.33;;;;;;;5.31;85.53;101921.47;5292977;27;20031;-73
2023/04/19 04:01:23;;;;;;;4.10;1.55;;;;;;;5.19;86.30;101919.63;5296740;27;20079;-75
2023/04/19 04:03:54;;;;;;;3.97;1.30;;;;;;;5.33;85.30;101919.75;5316422;27;20023;-75
2023/04/19 04:06:25;;;;;;;4.88;1.70;;;;;;;5.30;86.43;101919.75;5317364;27;20018;-74
2023/04/19 04:08:55;;;;;;;3.53;1.42;;;;;;;5.35;85.34;101918.91;5310887;27;20019;-75
2023/04/19 04:11:26;;;;;;;4.28;1.58;;;;;;;5.26;86.13;101929.22;5310806;27;20030;-74
2023/04/19 04:13:56;;;;;;;6.22;1.30;;;;;;;5.25;85.94;101927.47;5317206;27;20030;-71
2023/04/19 04:16:26;;;;;;;3.63;1.55;;;;;;;5.33;86.56;101923.22;5316750;27;20022;-75
2023/04/19 04:18:57;;;;;;;5.63;1.70;;;;;;;5.34;85.94;101921.50;5312138;27;20600;-75
2023/04/19 04:21:28;;;;;;;3.80;1.40;;;;;;;5.39;86.68;101923.28;5307339;27;20027;-75
2023/04/19 04:24:00;;;;;;;4.65;1.70;;;;;;;5.38;85.93;101924.13;5311205;27;20658;-74
2023/04/19 04:26:32;;;;;;;5.15;1.48;;;;;;;5.43;85.81;101923.28;5310724;27;20035;-71
2023/04/19 04:29:03;;;;;;;5.10;1.70;;;;;;;5.48;85.52;101921.59;5292772;27;20035;-75
2023/04/19 04:31:34;;;;;;;2.20;1.40;;;;;;;5.53;85.50;101919.00;5315931;27;20761;-74
2023/04/19 04:34:05;;;;;;;6.72;1.40;;;;;;;5.54;86.31;101913.84;5314357;27;20114;-74
2023/04/19 04:36:36;;;;;;;5.88;1.48;;;;;;;5.65;85.43;101919.97;5306789;27;20098;-74
2023/04/19 04:39:09;;;;;;;4.57;1.83;;;;;;;5.79;85.59;101922.66;5312101;27;20412;-74
2023/04/19 04:41:40;;;;;;;3.60;1.58;;;;;;;5.91;84.68;101922.75;5315078;27;20109;-74
2023/04/19 04:44:11;;;;;;;3.85;1.52;;;;;;;5.88;84.31;101922.75;5316303;27;20022;-74
2023/04/19 04:46:42;;;;;;;3.45;1.85;;;;;;;6.14;85.10;101919.38;5288612;27;20024;-74
2023/04/19 04:49:12;;;;;;;3.40;1.60;;;;;;;6.00;84.59;101926.25;5311902;27;20041;-71
2023/04/19 04:51:42;;;;;;;2.92;1.30;;;;;;;6.13;85.41;101925.44;5307706;27;20066;-74
2023/04/19 04:54:13;;;;;;;3.40;1.40;;;;;;;6.33;83.79;101923.78;5311640;27;20031;-72
2023/04/19 04:56:43;;;;;;;6.65;2.20;;;;;;;6.38;83.99;101921.16;5310895;27;20023;-75
2023/04/19 04:59:13;;;;;;;3.13;1.27;;;;;;;6.59;83.73;101913.47;5312567;27;20629;-72
2023/04/19 05:01:44;;;;;;;6.72;1.42;;;;;;;6.82;82.03;101909.16;5302521;27;20045;-75
2023/04/19 05:04:14;;;;;;;3.10;1.50;;;;;;;6.77;82.28;101916.09;5313258;27;20046;-71
2023/04/19 05:06:45;;;;;;;4.35;1.48;;;;;;;7.06;80.76;101903.94;5319618;27;20151;-74
2023/04/19 05:09:15;;;;;;;7.57;1.77;;;;;;;7.16;80.00;101906.56;5314766;27;20026;-74
2023/04/19 05:11:45;;;;;;;4.35;1.60;;;;;;;7.40;79.17;101907.41;5310614;27;20027;-75
2023/04/19 05:14:16;;;;;;;3.42;1.15;;;;;;;7.63;78.80;101915.16;5299959;27;20015;-74
2023/04/19 05:16:46;;;;;;;3.75;1.40;;;;;;;8.02;77.07;101910.69;5293450;27;20034;-75
2023/04/19 05:19:16;;;;;;;5.53;1.30;;;;;;;9.23;72.24;101909.94;5312491;27;20030;-76
2023/04/19 05:21:47;;;;;;;4.28;1.20;;;;;;;10.90;68.46;101902.69;5299876;27;20026;-76
2023/04/19 05:24:17;;;;;;;3.00;1.30;;;;;;;11.61;65.62;101896.22;5292113;27;20053;-73
2023/04/19 05:26:50;;;;;;;4.55;1.48;;;;;;;12.57;61.28;101888.06;5309174;27;20110;-72
2023/04/19 05:29:20;;;;;;;3.40;1.30;;;;;;;13.63;57.93;101888.03;5308157;27;20471;-75
2023/04/19 05:31:51;;;;;;;3.55;1.30;;;;;;;12.38;59.88;101892.00;5304384;27;20030;-75
2023/04/19 05:34:21;;;;;;;4.05;1.60;;;;;;;12.95;59.13;101891.56;5290891;27;20641;-75
2023/04/19 05:36:51;;;;;;;5.70;1.25;;;;;;;13.12;60.40;101885.00;5308083;27;20023;-75
2023/04/19 05:39:22;;;;;;;4.55;1.13;;;;;;;14.42;56.91;101877.00;5306018;27;20034;-75
2023/04/19 05:41:52;;;;;;;6.25;1.40;;;;;;;16.28;52.74;101869.59;5304796;27;20050;-75
2023/04/19 05:44:23;;;;;;;2.20;1.10;;;;;;;15.51;52.47;101873.38;5316079;27;20038;-76
2023/04/19 05:46:53;;;;;;;3.22;1.27;;;;;;;14.13;56.10;101880.47;5312201;27;20029;-73
2023/04/19 05:49:23;;;;;;;2.95;1.48;;;;;;;11.46;60.95;101899.06;5312388;27;20048;-74
2023/04/19 05:51:54;;;;;;;5.22;1.70;;;;;;;10.19;66.33;101895.84;5318463;27;20034;-74
2023/04/19 05:54:25;;;;;;;4.78;1.50;;;;;;;9.06;69.73;101905.75;5312524;27;20023;-75
2023/04/19 05:56:55;;;;;;;2.17;1.13;;;;;;;8.48;71.78;101903.56;5308047;27;20023;-74
2023/04/19 05:59:25;;;;;;;7.53;1.52;;;;;;;8.30;74.62;101896.72;5314562;27;20038;-75
2023/04/19 06:01:57;;;;;;;3.83;1.30;;;;;;;8.01;75.27;101895.09;5312045;27;20100;-74
2023/04/19 06:04:27;;;;;;;5.75;1.40;;;;;;;8.10;75.65;101897.66;5310369;27;20034;-74
2023/04/19 06:06:57;;;;;;;3.97;1.20;;;;;;;8.27;75.20;101888.94;5308506;27;20518;-73
2023/04/19 06:09:28;;;;;;;2.40;0.95;;;;;;;8.14;75.18;101888.94;5294119;27;20023;-74
2023/04/19 06:11:58;;;;;;;6.93;0.95;;;;;;;7.82;77.18;101891.69;5306186;27;20030;-75
2023/04/19 06:14:28;;;;;;;2.83;1.10;;;;;;;8.21;76.15;101895.91;5320657;27;20467;-74
2023/04/19 06:16:58;;;;;;;3.10;1.08;;;;;;;7.83;76.96;101893.41;5294060;27;20441;-73
2023/04/19 06:19:31;;;;;;;2.60;1.05;;;;;;;7.93;75.88;101889.03;5315749;27;20408;-74
2023/04/19 06:22:01;;;;;;;2.70;1.45;;;;;;;8.04;75.88;101893.31;5313643;27;20495;-74
2023/04/19 06:24:32;;;;;;;2.80;1.17;;;;;;;8.03;75.99;101891.59;5294195;27;20113;-74
2023/04/19 06:27:02;;;;;;;3.97;1.50;;;;;;;7.91;76.01;101882.97;5316844;27;20098;-74
2023/04/19 06:29:32;;;;;;;3.90;1.40;;;;;;;8.07;75.89;101897.66;5318391;27;20026;-75
2023/04/19 06:32:03;;;;;;;4.15;1.25;;;;;;;8.23;74.19;101889.78;5293155;27;20029;-73
2023/04/19 06:34:33;;;;;;;2.72;1.23;;;;;;;10.48;71.19;101871.97;5312543;27;20036;-75
2023/04/19 06:37:03;;;;;;;3.10;1.40;;;;;;;11.64;64.42;101869.94;5311311;27;20516;-75
2023/04/19 06:39:34;;;;;;;3.40;1.20;;;;;;;12.69;61.94;101872.94;5314262;27;20413;-75
2023/04/19 06:42:05;;;;;;;3.40;1.25;;;;;;;13.98;57.71;101866.88;5309402;27;20014;-75
2023/04/19 06:44:35;;;;;;;2.50;1.00;;;;;;;15.53;55.26;101858.38;5315423;27;20113;-75
2023/04/19 06:47:05;;;;;;;2.60;1.08;;;;;;;15.11;54.88;101862.44;5318571;27;20033;-74
2023/04/19 06:49:36;;;;;;;2.97;1.00;;;;;;;13.75;55.66;101872.78;5313235;27;20035;-74
2023/04/19 06:52:06;;;;;;;3.08;1.08;;;;;;;13.52;57.03;101866.44;5314645;27;20034;-76
2023/04/19 06:54:36;;;;;;;2.75;0.95;;;;;;;13.21;57.95;101862.91;5317048;27;20046;-75
2023/04/19 06:57:07;;;;;;;3.45;1.10;;;;;;;13.28;58.22;101867.97;5320228;27;20475;-75
2023/04/19 06:59:38;;;;;;;3.28;1.00;;;;;;;13.68;57.30;101865.13;5315301;27;20476;-75
2023/04/19 07:02:09;;;;;;;1.75;0.90;;;;;;;14.31;56.20;101858.03;5302124;27;20028;-73
2023/04/19 07:04:39;;;;;;;1.70;0.80;;;;;;;14.97;55.21;101847.09;5321187;27;20062;-75
2023/04/19 07:07:10;;;;;;;1.17;0.80;;;;;;;13.96;55.62;101850.28;5314123;27;20123;-72
2023/04/19 07:09:40;;;;;;;1.50;0.90;;;;;;;15.58;53.10;101844.13;5320218;27;20428;-76
2023/04/19 07:12:10;;;;;;;2.17;0.70;;;;;;;16.34;52.26;101845.59;5315998;27;20463;-75
2023/04/19 07:14:41;;;;;;;2.30;1.00;;;;;;;16.35;51.15;101841.22;5294372;27;20114;-76
2023/04/19 07:17:12;;;;;;;1.88;1.00;;;;;;;15.89;52.59;101841.22;5315267;27;20023;-75
2023/04/19 07:19:47;;;;;;;5.15;1.02;;;;;;;16.15;51.67;101838.44;5320380;27;20038;-73
2023/04/19 07:22:17;;;;;;;0.88;0.70;;;;;;;16.02;51.63;101829.28;5319417;27;20018;-76
2023/04/19 07:24:50;;;;;;;2.53;0.93;;;;;;;16.15;50.81;101838.44;5311098;27;20540;-72
2023/04/19 07:27:21;;;;;;;2.42;0.93;;;;;;;15.31;52.21;101831.91;5311838;27;20380;-75
2023/04/19 07:29:52;;;;;;;5.15;1.10;;;;;;;16.32;51.79;101826.31;5316605;27;20079;-76
2023/04/19 07:32:22;;;;;;;2.05;1.00;;;;;;;17.59;48.39;101820.97;5321670;27;20023;-73
2023/04/19 07:34:52;;;;;;;2.60;0.90;;;;;;;16.78;48.30;101826.25;5321945;27;20365;-74
2023/04/19 07:37:23;;;;;;;2.22;1.00;;;;;;;16.64;48.70;101818.03;5302850;27;20019;-72
2023/04/19 07:39:53;;;;;;;2.45;0.93;;;;;;;17.42;48.23;101810.25;5318076;27;20025;-75
2023/04/19 07:42:24;;;;;;;3.67;1.10;;;;;;;17.54;46.69;101809.72;5308895;22;20036;-71
2023/04/19 07:44:54;;;;;;;2.65;1.00;;;;;;;16.64;47.14;101818.03;5253115;28;20054;-72
2023/04/19 07:47:24;;;;;;;2.92;1.10;;;;;;;16.27;48.17;101811.59;5251619;28;20508;-72
2023/04/19 07:49:55;;;;;;;1.65;0.77;;;;;;;16.07;48.48;101815.00;5254192;28;20038;-72
2023/04/19 07:52:25;;;;;;;1.48;0.80;;;;;;;16.50;47.16;101809.78;5248641;28;20027;-72
2023/04/19 07:54:56;;;;;;;2.53;1.08;;;;;;;16.68;47.15;101808.19;5233359;28;20482;-73
2023/04/19 07:57:26;;;;;;;2.35;1.10;;;;;;;16.31;47.07;101803.50;5230338;28;20322;-72
2023/04/19 07:59:58;;;;;;;3.38;1.00;;;;;;;18.86;44.66;101792.78;5239322;28;20295;-75
2023/04/19 08:02:28;;;;;;;2.60;0.80;;;;;;;19.55;42.89;101787.38;5234306;28;20066;-74
2023/04/19 08:04:58;;;;;;;2.55;1.00;;;;;;;19.48;42.19;101775.38;5235113;28;20024;-75
2023/04/19 08:07:29;;;;;;;2.58;1.00;;;;;;;18.41;45.07;101789.75;5232343;28;20055;-75
2023/04/19 08:09:59;;;;;;;1.52;0.85;;;;;;;16.56;45.92;101791.06;5233180;28;20025;-75
2023/04/19 08:12:30;;;;;;;1.73;0.90;;;;;;;18.25;43.72;101788.75;5234318;28;20406;-75
2023/04/19 08:15:01;;;;;;;2.08;1.13;;;;;;;16.96;45.05;101788.50;5237346;28;20048;-74
2023/04/19 08:17:31;;;;;;;3.55;0.90;;;;;;;16.51;45.75;101789.53;5210767;28;20341;-75
2023/04/19 08:20:02;;;;;;;2.53;1.08;;;;;;;16.22;45.77;101798.56;5237837;28;20471;-74
2023/04/19 08:22:33;;;;;;;1.98;0.95;;;;;;;16.12;46.42;101804.25;5232664;28;20036;-75
2023/04/19 08:25:05;;;;;;;2.75;1.20;;;;;;;16.15;46.54;101781.28;5232805;28;20036;-74
2023/04/19 08:27:35;;;;;;;2.63;1.10;;;;;;;16.30;46.81;101791.22;5230650;28;20432;-74
2023/04/19 08:30:06;;;;;;;2.00;1.00;;;;;;;15.42;48.37;101786.72;5233107;28;20029;-74
2023/04/19 08:32:37;;;;;;;1.83;1.02;;;;;;;15.80;45.98;101789.69;5230568;28;20115;-74
2023/04/19 08:35:08;;;;;;;2.85;1.00;;;;;;;16.68;45.60;101781.78;5231134;28;20467;-74
2023/04/19 08:37:38;;;;;;;3.80;1.00;;;;;;;15.30;47.75;101782.75;5231204;28;20086;-74
2023/04/19 08:40:10;;;;;;;2.60;0.90;;;;;;;16.83;46.04;101787.28;5214662;28;20032;-74
2023/04/19 08:42:40;;;;;;;2.35;0.95;;;;;;;15.77;46.64;101787.16;5234990;28;20041;-74
2023/04/19 08:45:12;;;;;;;1.23;0.90;;;;;;;16.51;44.70;101785.13;5233468;28;20444;-75
2023/04/19 08:47:43;;;;;;;1.67;0.95;;;;;;;17.70;43.99;101762.28;5226184;28;20118;-73
2023/04/19 08:50:15;;;;;;;1.83;1.10;;;;;;;17.41;44.96;101757.44;5215211;28;20426;-74
2023/04/19 08:52:45;;;;;;;2.17;1.10;;;;;;;16.13;45.83;101771.69;5233267;28;20029;-74
2023/04/19 08:55:16;;;;;;;2.15;1.05;;;;;;;15.76;47.35;101767.00;5231930;28;20134;-74
2023/04/19 08:57:47;;;;;;;2.30;1.10;;;;;;;15.44;45.81;101779.63;5228821;28;20043;-74
2023/04/19 09:00:18;;;;;;;5.68;1.55;;;;;;;16.64;43.57;101762.59;5213011;28;20040;-74
2023/04/19 09:02:50;;;;;;;2.60;1.02;;;;;;;17.66;43.06;101734.28;5231597;28;20563;-73
2023/04/19 09:05:21;;;;;;;2.88;1.20;;;;;;;17.27;42.98;101736.03;5233553;28;20030;-73
2023/04/19 09:07:51;;;;;;;1.88;1.00;;;;;;;17.77;43.03;101739.91;5228508;28;20020;-73
2023/04/19 09:10:23;;;;;;;2.83;1.10;;;;;;;16.54;43.43;101747.19;5232735;28;20386;-73
2023/04/19 09:13:04;;;;;;;5.97;1.10;;;;;;;15.20;47.02;101741.81;5230449;28;20033;-73
2023/04/19 09:15:37;;;;;;;1.45;0.82;;;;;;;16.15;46.13;101736.44;5232287;28;20032;-73
2023/04/19 09:18:09;;;;;;;3.70;1.00;;;;;;;17.67;42.63;101739.47;5227678;28;20039;-74
2023/04/19 09:20:42;;;;;;;7.60;1.10;;;;;;;16.33;42.67;101727.78;5229639;28;20486;-74
2023/04/19 09:23:15;;;;;;;2.45;1.20;;;;;;;15.21;44.35;101742.69;5210316;28;20498;-71
2023/04/19 09:25:52;;;;;;;3.92;1.35;;;;;;;14.37;46.65;101742.09;5224495;28;20036;-73
2023/04/19 09:28:23;;;;;;;3.17;1.13;;;;;;;14.65;46.61;101722.75;5231390;28;20032;-72
2023/04/19 09:30:57;;;;;;;2.28;1.20;;;;;;;13.67;48.60;101737.28;5210972;28;20020;-73
2023/04/19 09:33:32;;;;;;;3.42;1.10;;;;;;;12.83;49.36;101723.88;5228543;28;20032;-73
2023/04/19 09:36:02;;;;;;;5.37;1.23;;;;;;;12.80;49.87;101713.47;5229673;28;20029;-72
2023/04/19 09:38:47;;;;;;;2.97;1.10;;;;;;;13.58;49.09;101708.66;5233365;28;20786;-73
2023/04/19 09:41:17;;;;;;;2.83;1.10;;;;;;;13.02;51.06;101704.16;5230932;28;20056;-73
2023/04/19 09:43:48;;;;;;;1.80;1.10;;;;;;;13.00;49.48;101692.84;5230779;28;20094;-72
2023/04/19 09:46:36;;;;;;;3.22;1.27;;;;;;;13.13;49.22;101688.97;5229961;28;20028;-74
2023/04/19 09:49:18;;;;;;;2.80;1.00;;;;;;;12.95;49.94;101697.38;5210898;28;20035;-73
2023/04/19 09:51:51;;;;;;;3.20;1.10;;;;;;;13.29;50.45;101688.53;5228252;28;20033;-72
2023/04/19 09:54:22;;;;;;;4.47;1.30;;;;;;;13.08;50.95;101683.84;5228396;28;20028;-72
2023/04/19 09:56:53;;;;;;;1.40;0.90;;;;;;;12.96;50.10;101678.09;5228250;28;20036;-73
2023/04/19 09:59:23;;;;;;;3.28;1.10;;;;;;;12.49;50.38;101681.06;5228956;28;20521;-73
2023/04/19 10:01:57;;;;;;;3.63;1.17;;;;;;;13.00;49.50;101674.47;5229869;28;20025;-72
2023/04/19 10:04:28;;;;;;;1.98;1.00;;;;;;;13.01;50.22;101679.69;5229787;28;20032;-73
2023/04/19 10:06:58;;;;;;;2.28;0.85;;;;;;;13.26;50.49;101661.47;5227658;28;20112;-73
2023/04/19 10:09:29;;;;;;;5.07;1.30;;;;;;;13.18;49.71;101651.19;5228704;28;20021;-73
2023/04/19 10:12:00;;;;;;;2.78;1.13;;;;;;;13.29;49.96;101643.00;5210987;28;20027;-73
2023/04/19 10:14:35;;;;;;;2.65;0.90;;;;;;;13.38;49.79;101640.97;5226603;28;20025;-73
2023/04/19 10:17:05;;;;;;;2.00;1.15;;;;;;;12.47;52.29;101646.16;5229321;28;20054;-73
2023/04/19 10:19:37;;;;;;;2.63;0.90;;;;;;;12.98;51.58;101640.41;5226133;28;20021;-73
2023/04/19 10:22:08;;;;;;;2.35;1.10;;;;;;;13.18;49.53;101643.31;5237160;28;20605;-73
2023/04/19 10:24:38;;;;;;;3.35;1.20;;;;;;;12.63;48.18;101629.13;5227569;28;20083;-73
2023/04/19 10:27:13;;;;;;;2.22;1.23;;;;;;;12.71;47.66;101613.19;5229001;28;20028;-72
2023/04/19 10:30:00;;;;;;;4.90;1.13;;;;;;;12.84;45.55;101615.41;5227711;28;20021;-73
2023/04/19 10:32:39;;;;;;;3.08;0.98;;;;;;;13.18;44.35;101605.69;5227460;28;20182;-73
2023/04/19 10:35:17;;;;;;;2.28;1.00;;;;;;;13.10;45.34;101613.78;5231815;28;20108;-73
2023/04/19 10:38:07;;;;;;;4.05;1.10;;;;;;;13.24;45.38;101606.38;5230393;28;20029;-73
2023/04/19 10:40:49;;;;;;;4.60;1.17;;;;;;;13.14;45.13;101601.44;5235838;28;20059;-73
2023/04/19 10:43:24;;;;;;;1.90;0.93;;;;;;;13.18;43.84;101610.94;5228588;28;20024;-73
2023/04/19 10:45:59;;;;;;;1.60;0.90;;;;;;;12.55;44.47;101610.13;5233409;28;20036;-71
2023/04/19 10:48:34;;;;;;;2.67;1.00;;;;;;;12.87;43.74;101604.84;5234477;28;20374;-73
2023/04/19 10:51:13;;;;;;;2.28;1.10;;;;;;;12.80;42.27;101598.03;5231444;28;20493;-71
2023/04/19 10:54:00;;;;;;;2.63;1.00;;;;;;;13.26;43.93;101603.72;5214010;28;20029;-73
2023/04/19 10:56:33;;;;;;;2.13;1.00;;;;;;;13.08;43.68;101601.63;5230552;28;20028;-73
2023/04/19 10:59:10;;;;;;;2.25;1.00;;;;;;;12.66;43.00;101599.34;5232902;28;20051;-73
2023/04/19 11:01:50;;;;;;;5.63;1.20;;;;;;;12.84;44.32;101581.31;5215745;28;20112;-72
2023/04/19 11:04:22;;;;;;;2.67;1.00;;;;;;;12.75;45.89;101573.72;5229625;28;20565;-73
2023/04/19 11:06:53;;;;;;;2.45;1.10;;;;;;;12.86;45.06;101584.78;5231152;28;20036;-72
2023/04/19 11:09:25;;;;;;;1.60;0.93;;;;;;;13.07;43.99;101592.91;5233295;28;20033;-72
2023/04/19 11:12:09;;;;;;;2.17;0.98;;;;;;;13.11;44.39;101567.41;5230385;28;20031;-71
2023/04/19 11:14:42;;;;;;;2.22;1.10;;;;;;;13.15;43.81;101564.66;5229064;28;20024;-74
2023/04/19 11:17:19;;;;;;;1.83;1.02;;;;;;;13.05;43.34;101575.50;5229918;28;20603;-71
2023/04/19 11:20:07;;;;;;;3.08;1.00;;;;;;;12.76;44.95;101575.44;5229742;28;20518;-71
2023/04/19 11:22:37;;;;;;;2.05;1.10;;;;;;;13.00;45.29;101566.88;5232344;28;20040;-73
2023/04/19 11:25:13;;;;;;;2.15;1.20;;;;;;;13.18;45.32;101567.19;5232694;28;20489;-73
2023/04/19 11:27:52;;;;;;;2.67;1.00;;;;;;;13.10;44.25;101552.59;5232464;28;20048;-73
2023/04/19 11:30:29;;;;;;;1.67;0.93;;;;;;;13.09;44.91;101562.22;5228212;28;20110;-72
2023/04/19 11:33:00;;;;;;;2.00;1.02;;;;;;;12.75;45.99;101552.72;5229720;28;20036;-71
2023/04/19 11:35:30;;;;;;;2.67;1.50;;;;;;;13.27;46.10;101539.81;5231481;28;20494;-73
2023/04/19 11:38:01;;;;;;;1.77;0.90;;;;;;;12.88;46.72;101540.09;5230863;28;20073;-73
2023/04/19 11:40:32;;;;;;;6.10;1.20;;;;;;;13.17;47.01;101533.09;5233628;28;20032;-72
2023/04/19 11:43:03;;;;;;;2.47;1.05;;;;;;;13.22;46.08;101536.47;5231212;28;20056;-73
2023/04/19 11:45:36;;;;;;;1.73;1.00;;;;;;;13.25;46.52;101539.84;5230939;28;20124;-73
2023/04/19 11:48:14;;;;;;;5.57;0.98;;;;;;;13.38;47.32;101529.84;5209720;28;20025;-72